createdAt,value
2023-01-05T00:01:37.107Z,23.67
2023-01-05T00:04:06.018Z,18.83
2023-01-05T00:06:34.338Z,21.40
2023-01-05T00:09:03.872Z,21.83
2023-01-05T00:11:49.009Z,24.30
2023-01-05T00:14:35.630Z,22.70
2023-01-05T00:17:21.898Z,27.23
2023-01-05T00:20:07.416Z,22.77
2023-01-05T00:22:42.322Z,20.47
2023-01-05T00:25:13.401Z,21.50
2023-01-05T00:27:42.975Z,21.17
2023-01-05T00:30:12.346Z,23.07
2023-01-05T00:32:41.582Z,28.97
2023-01-05T00:35:10.854Z,18.03
2023-01-05T00:37:39.453Z,19.57
2023-01-05T00:40:09.091Z,17.87
2023-01-05T00:42:38.830Z,17.23
2023-01-05T00:45:08.225Z,18.47
2023-01-05T00:47:36.265Z,18.70
2023-01-05T00:50:04.614Z,16.63
2023-01-05T00:52:32.502Z,17.53
2023-01-05T00:55:00.382Z,18.03
2023-01-05T00:57:28.245Z,19.57
2023-01-05T00:59:57.443Z,16.77
2023-01-05T01:02:25.436Z,19.03
2023-01-05T01:04:53.388Z,15.93
2023-01-05T01:07:21.388Z,11.97
2023-01-05T01:09:49.333Z,22.33
2023-01-05T01:12:17.256Z,17.87
2023-01-05T01:14:48.708Z,18.77
2023-01-05T01:17:18.208Z,12.80
2023-01-05T01:19:46.713Z,16.93
2023-01-05T01:22:15.160Z,17.43
2023-01-05T01:24:43.068Z,19.87
2023-01-05T01:27:10.953Z,13.33
2023-01-05T01:29:38.858Z,15.27
2023-01-05T01:32:06.814Z,19.73
2023-01-05T01:34:36.381Z,19.20
2023-01-05T01:37:04.395Z,19.90
2023-01-05T01:39:32.325Z,23.67
2023-01-05T01:42:00.149Z,13.57
2023-01-05T01:44:55.369Z,19.77
2023-01-05T01:47:28.874Z,21.77
2023-01-05T01:50:00.804Z,19.03
2023-01-05T01:52:30.384Z,21.90
2023-01-05T01:54:58.888Z,17.40
2023-01-05T01:57:29.126Z,18.53
2023-01-05T01:59:59.800Z,19.93
2023-01-05T02:02:29.208Z,17.23
2023-01-05T02:05:03.680Z,18.67
2023-01-05T02:07:35.018Z,21.27
2023-01-05T02:10:04.279Z,20.50
2023-01-05T02:12:40.733Z,22.07
2023-01-05T02:15:21.719Z,21.67
2023-01-05T02:18:01.013Z,21.70
2023-01-05T02:20:41.038Z,18.57
2023-01-05T02:23:53.981Z,24.20
2023-01-05T02:26:50.902Z,18.53
2023-01-05T02:29:45.113Z,23.10
2023-01-05T02:32:20.798Z,19.17
2023-01-05T02:34:59.328Z,22.70
2023-01-05T02:37:33.690Z,22.63
2023-01-05T02:40:07.497Z,26.10
2023-01-05T02:42:37.459Z,19.23
2023-01-05T02:45:07.366Z,22.23
2023-01-05T02:47:44.890Z,21.50
2023-01-05T02:50:18.759Z,24.23
2023-01-05T02:52:54.514Z,24.10
2023-01-05T02:55:28.401Z,22.33
2023-01-05T02:58:01.354Z,27.10
2023-01-05T03:00:34.400Z,22.33
2023-01-05T03:03:08.839Z,21.97
2023-01-05T03:05:40.933Z,25.43
2023-01-05T03:08:25.036Z,20.20
2023-01-05T03:11:20.279Z,19.43
2023-01-05T03:13:52.546Z,19.80
2023-01-05T03:16:24.571Z,24.00
2023-01-05T03:19:13.716Z,21.57
2023-01-05T03:21:59.937Z,23.60
2023-01-05T03:24:45.220Z,25.57
2023-01-05T03:27:32.523Z,22.40
2023-01-05T03:30:18.213Z,20.57
2023-01-05T03:33:08.608Z,21.03
2023-01-05T03:35:44.660Z,20.30
2023-01-05T03:38:20.116Z,20.83
2023-01-05T03:40:50.901Z,14.57
2023-01-05T03:43:18.971Z,16.13
2023-01-05T03:45:53.625Z,17.17
2023-01-05T03:48:22.094Z,17.97
2023-01-05T03:50:51.592Z,18.13
2023-01-05T03:53:19.454Z,29.13
2023-01-05T03:55:47.309Z,17.97
2023-01-05T03:58:15.213Z,21.23
2023-01-05T04:00:43.083Z,15.93
2023-01-05T04:03:11.245Z,20.40
2023-01-05T04:05:39.170Z,16.73
2023-01-05T04:08:08.745Z,19.73
2023-01-05T04:10:36.826Z,24.90
2023-01-05T04:13:04.760Z,21.97
2023-01-05T04:15:32.693Z,20.63
2023-01-05T04:18:00.579Z,23.27
2023-01-05T04:20:28.487Z,16.27
2023-01-05T04:22:56.305Z,21.30
2023-01-05T04:25:25.508Z,20.30
2023-01-05T04:27:53.402Z,16.60
2023-01-05T04:30:21.585Z,19.93
2023-01-05T04:32:49.464Z,25.27
2023-01-05T04:35:17.465Z,19.97
2023-01-05T04:37:46.127Z,17.63
2023-01-05T04:40:14.041Z,19.00
2023-01-05T04:42:43.283Z,23.13
2023-01-05T04:45:12.086Z,25.07
2023-01-05T04:47:39.927Z,15.33
2023-01-05T04:50:09.334Z,22.73
2023-01-05T04:52:37.207Z,20.03
2023-01-05T04:55:05.883Z,18.03
2023-01-05T04:57:33.721Z,17.57
2023-01-05T05:00:03.924Z,24.20
2023-01-05T05:02:32.016Z,21.30
2023-01-05T05:05:00.045Z,21.83
2023-01-05T05:07:28.252Z,22.13
2023-01-05T05:09:56.087Z,28.47
2023-01-05T05:12:23.973Z,25.83
2023-01-05T05:14:52.399Z,19.93
2023-01-05T05:17:21.641Z,19.03
2023-01-05T05:19:49.514Z,18.97
2023-01-05T05:22:17.437Z,14.67
2023-01-05T05:24:45.283Z,18.20
2023-01-05T05:27:13.160Z,19.57
2023-01-05T05:29:41.066Z,21.70
2023-01-05T05:32:08.946Z,15.70
2023-01-05T05:34:38.250Z,24.50
2023-01-05T05:37:06.161Z,18.13
2023-01-05T05:39:34.032Z,22.00
2023-01-05T05:42:01.883Z,22.13
2023-01-05T05:44:29.799Z,21.43
2023-01-05T05:46:57.800Z,23.77
2023-01-05T05:49:25.764Z,20.47
2023-01-05T05:51:54.961Z,20.13
2023-01-05T05:54:22.870Z,16.37
2023-01-05T05:56:50.772Z,18.60
2023-01-05T05:59:18.627Z,21.43
2023-01-05T06:01:46.653Z,21.87
2023-01-05T06:04:14.649Z,15.80
2023-01-05T06:06:42.564Z,17.73
2023-01-05T06:09:11.777Z,18.00
2023-01-05T06:11:39.714Z,17.60
2023-01-05T06:14:08.395Z,21.33
2023-01-05T06:16:36.614Z,17.30
2023-01-05T06:19:04.582Z,19.23
2023-01-05T06:21:32.470Z,17.40
2023-01-05T06:24:00.344Z,15.93
2023-01-05T06:26:29.573Z,19.73
2023-01-05T06:28:57.413Z,24.20
2023-01-05T06:31:25.349Z,22.57
2023-01-05T06:33:54.046Z,20.60
2023-01-05T06:36:21.879Z,18.17
2023-01-05T06:38:49.820Z,21.30
2023-01-05T06:41:17.707Z,21.77
2023-01-05T06:43:46.911Z,16.77
2023-01-05T06:46:14.816Z,23.53
2023-01-05T06:48:42.617Z,22.10
2023-01-05T06:51:10.492Z,18.77
2023-01-05T06:53:38.319Z,19.60
2023-01-05T06:56:06.822Z,16.40
2023-01-05T06:58:34.695Z,23.23
2023-01-05T07:01:04.083Z,18.93
2023-01-05T07:03:32.183Z,17.63
2023-01-05T07:06:00.120Z,14.97
2023-01-05T07:08:27.992Z,20.67
2023-01-05T07:10:55.827Z,15.50
2023-01-05T07:13:23.706Z,15.70
2023-01-05T07:15:51.603Z,20.57
2023-01-05T07:18:20.839Z,14.57
2023-01-05T07:20:48.731Z,17.40
2023-01-05T07:23:16.534Z,13.53
2023-01-05T07:25:44.399Z,13.80
2023-01-05T07:28:12.276Z,12.83
2023-01-05T07:30:40.160Z,14.67
2023-01-05T07:33:08.106Z,19.37
2023-01-05T07:35:37.370Z,17.97
2023-01-05T07:38:05.234Z,21.93
2023-01-05T07:40:33.057Z,18.90
2023-01-05T07:43:01.024Z,15.33
2023-01-05T07:45:29.098Z,16.30
2023-01-05T07:47:57.038Z,26.53
2023-01-05T07:50:24.974Z,25.20
2023-01-05T07:52:54.182Z,14.77
2023-01-05T07:55:22.266Z,13.20
2023-01-05T07:57:50.147Z,15.07
2023-01-05T08:00:18.476Z,19.77
2023-01-05T08:02:46.714Z,19.97
2023-01-05T08:05:14.696Z,15.17
2023-01-05T08:07:42.606Z,16.40
2023-01-05T08:10:30.365Z,12.77
2023-01-05T08:13:20.593Z,12.10
2023-01-05T08:15:51.262Z,16.87
2023-01-05T08:18:19.847Z,16.50
2023-01-05T08:20:52.660Z,14.90
2023-01-05T08:23:25.382Z,14.97
2023-01-05T08:25:56.581Z,19.37
2023-01-05T08:28:29.919Z,16.20
2023-01-05T08:31:03.242Z,13.47
2023-01-05T08:33:31.262Z,13.93
2023-01-05T08:35:59.329Z,16.13
2023-01-05T08:38:27.628Z,12.17
2023-01-05T08:41:00.089Z,13.27
2023-01-05T08:43:28.325Z,17.77
2023-01-05T08:45:56.305Z,18.97
2023-01-05T08:48:24.237Z,16.70
2023-01-05T08:50:52.101Z,15.23
2023-01-05T08:53:20.031Z,17.20
2023-01-05T08:55:47.848Z,14.97
2023-01-05T08:58:17.108Z,16.40
2023-01-05T09:00:45.050Z,18.83
2023-01-05T09:03:13.075Z,17.73
2023-01-05T09:05:40.991Z,14.63
2023-01-05T09:08:08.838Z,16.60
2023-01-05T09:10:36.724Z,13.50
2023-01-05T09:13:04.617Z,15.07
2023-01-05T09:15:33.900Z,16.03
2023-01-05T09:18:01.909Z,22.53
2023-01-05T09:20:34.569Z,15.80
2023-01-05T09:23:05.657Z,15.53
2023-01-05T09:25:33.540Z,14.17
2023-01-05T09:28:01.408Z,15.00
2023-01-05T09:30:32.122Z,16.80
2023-01-05T09:33:05.623Z,25.10
2023-01-05T09:35:33.480Z,23.03
2023-01-05T09:38:01.394Z,22.43
2023-01-05T09:40:32.190Z,18.23
2023-01-05T09:43:00.137Z,19.70
2023-01-05T09:45:29.561Z,22.17
2023-01-05T09:48:00.109Z,17.03
2023-01-05T09:50:31.795Z,18.77
2023-01-05T09:53:01.940Z,16.73
2023-01-05T09:55:32.361Z,19.90
2023-01-05T09:58:06.229Z,15.40
2023-01-05T10:00:34.532Z,18.17
2023-01-05T10:03:04.551Z,16.97
2023-01-05T10:05:38.709Z,15.00
2023-01-05T10:08:12.093Z,18.07
2023-01-05T10:11:07.699Z,18.73
2023-01-05T10:13:39.112Z,18.20
2023-01-05T10:16:08.029Z,16.13
2023-01-05T10:18:37.578Z,22.27
2023-01-05T10:21:17.963Z,21.63
2023-01-05T10:24:01.880Z,20.87
2023-01-05T10:26:58.657Z,14.33
2023-01-05T10:29:28.256Z,15.40
2023-01-05T10:32:00.446Z,14.57
2023-01-05T10:34:47.939Z,14.40
2023-01-05T10:37:41.578Z,16.00
2023-01-05T10:40:22.843Z,15.57
2023-01-05T10:43:00.316Z,16.23
2023-01-05T10:45:31.336Z,24.90
2023-01-05T10:48:00.127Z,13.07
2023-01-05T10:50:37.744Z,14.10
2023-01-05T10:53:11.972Z,17.23
2023-01-05T10:55:51.188Z,14.93
2023-01-05T10:58:23.892Z,16.53
2023-01-05T11:00:55.132Z,16.67
2023-01-05T11:04:04.334Z,16.53
2023-01-05T11:06:22.701Z,19.80
2023-01-05T11:08:52.447Z,15.00
2023-01-05T11:11:25.985Z,20.70
2023-01-05T11:13:57.085Z,15.37
2023-01-05T11:16:28.264Z,16.90
2023-01-05T11:18:58.677Z,13.97
2023-01-05T11:21:28.890Z,13.73
2023-01-05T11:23:59.841Z,19.40
2023-01-05T11:26:35.301Z,14.67
2023-01-05T11:29:15.073Z,16.50
2023-01-05T11:31:48.010Z,14.03
2023-01-05T11:34:26.115Z,17.60
2023-01-05T11:36:55.521Z,13.97
2023-01-05T11:39:30.432Z,11.90
2023-01-05T11:42:21.767Z,15.23
2023-01-05T11:44:55.489Z,13.73
2023-01-05T11:47:27.967Z,21.27
2023-01-05T11:50:06.936Z,15.77
2023-01-05T11:52:38.448Z,15.40
2023-01-05T11:55:31.140Z,14.90
2023-01-05T11:58:24.503Z,12.07
2023-01-05T12:01:15.164Z,15.87
2023-01-05T12:04:01.206Z,16.23
2023-01-05T12:06:44.474Z,17.20
2023-01-05T12:09:18.465Z,18.40
2023-01-05T12:11:57.992Z,17.63
2023-01-05T12:14:35.898Z,18.57
2023-01-05T12:17:12.902Z,17.60
2023-01-05T12:19:58.542Z,19.03
2023-01-05T12:22:46.059Z,20.67
2023-01-05T12:25:28.599Z,14.67
2023-01-05T12:28:35.814Z,17.27
2023-01-05T12:34:40.166Z,18.63
2023-01-05T12:37:21.014Z,14.13
2023-01-05T12:40:12.079Z,15.20
2023-01-05T12:42:59.813Z,19.23
2023-01-05T12:45:57.789Z,14.37
2023-01-05T12:48:30.156Z,14.63
2023-01-05T12:51:05.649Z,22.37
2023-01-05T12:53:47.718Z,18.47
2023-01-05T12:56:26.886Z,16.50
2023-01-05T12:59:13.781Z,20.80
2023-01-05T13:01:46.317Z,15.83
2023-01-05T13:04:41.509Z,13.37
2023-01-05T13:07:20.379Z,15.43
2023-01-05T13:09:57.091Z,13.20
2023-01-05T13:12:28.623Z,19.27
2023-01-05T13:15:07.380Z,16.77
2023-01-05T13:17:41.816Z,16.77
2023-01-05T13:20:29.240Z,16.03
2023-01-05T13:23:03.200Z,20.27
2023-01-05T13:25:34.334Z,18.30
2023-01-05T13:28:02.325Z,22.60
2023-01-05T13:30:35.188Z,20.20
2023-01-05T13:33:25.765Z,16.90
2023-01-05T13:36:04.207Z,15.97
2023-01-05T13:39:01.886Z,14.77
2023-01-05T13:41:50.292Z,19.33
2023-01-05T13:44:37.581Z,14.43
2023-01-05T13:47:29.918Z,16.73
2023-01-05T13:50:26.464Z,15.13
2023-01-05T13:53:04.672Z,16.57
2023-01-05T13:55:37.975Z,17.87
2023-01-05T13:58:07.201Z,13.47
2023-01-05T14:00:39.554Z,15.23
2023-01-05T14:03:15.003Z,11.97
2023-01-05T14:05:51.960Z,14.30
2023-01-05T14:08:24.117Z,15.23
2023-01-05T14:11:14.403Z,15.10
2023-01-05T14:13:48.599Z,17.50
2023-01-05T14:17:01.669Z,17.40
2023-01-05T14:19:52.761Z,13.40
2023-01-05T14:22:49.313Z,16.87
2023-01-05T14:25:53.741Z,22.33
2023-01-05T14:28:43.484Z,17.63
2023-01-05T14:31:43.102Z,26.43
2023-01-05T14:34:17.068Z,16.37
2023-01-05T14:36:48.032Z,22.23
2023-01-05T14:39:31.725Z,24.40
2023-01-05T14:42:06.083Z,18.53
2023-01-05T14:44:44.127Z,21.33
2023-01-05T14:47:12.286Z,23.53
2023-01-05T14:49:44.555Z,17.40
2023-01-05T14:52:17.968Z,23.73
2023-01-05T14:55:27.028Z,21.23
2023-01-05T14:58:03.245Z,28.57
2023-01-05T15:03:21.060Z,17.70
2023-01-05T15:05:56.227Z,21.70
2023-01-05T15:08:38.825Z,20.53
2023-01-05T15:11:24.359Z,22.73
2023-01-05T15:14:35.814Z,18.90
2023-01-05T15:17:37.401Z,20.87
2023-01-05T15:20:26.292Z,23.23
2023-01-05T15:23:10.084Z,22.80
2023-01-05T15:26:03.236Z,21.00
2023-01-05T15:29:00.741Z,22.87
2023-01-05T15:31:36.595Z,19.07
2023-01-05T15:34:18.389Z,26.53
2023-01-05T15:36:52.400Z,25.43
2023-01-05T15:39:29.289Z,24.03
2023-01-05T15:42:00.542Z,21.57
2023-01-05T15:44:36.967Z,24.67
2023-01-05T15:47:05.793Z,18.40
2023-01-05T15:49:34.977Z,18.57
2023-01-05T15:52:03.178Z,21.57
2023-01-05T15:54:32.518Z,19.57
2023-01-05T15:57:02.492Z,23.23
2023-01-05T15:59:36.068Z,16.47
2023-01-05T16:02:16.571Z,19.23
2023-01-05T16:04:44.491Z,19.90
2023-01-05T16:07:13.124Z,16.30
2023-01-05T16:09:47.184Z,23.70
2023-01-05T16:12:24.153Z,22.37
2023-01-05T16:14:57.779Z,22.70
2023-01-05T16:17:26.943Z,16.70
2023-01-05T16:19:58.119Z,17.90
2023-01-05T16:22:30.783Z,17.83
2023-01-05T16:25:05.183Z,22.50
2023-01-05T16:27:38.213Z,14.93
2023-01-05T16:30:29.562Z,23.50
2023-01-05T16:32:59.238Z,20.07
2023-01-05T16:35:42.954Z,16.47
2023-01-05T16:38:27.077Z,20.63
2023-01-05T16:41:14.468Z,17.97
2023-01-05T16:43:45.704Z,20.47
2023-01-05T16:46:37.274Z,16.53
2023-01-05T16:49:26.065Z,17.33
2023-01-05T16:51:54.922Z,18.37
2023-01-05T16:54:24.728Z,21.73
2023-01-05T16:56:59.043Z,18.53
2023-01-05T16:59:49.932Z,19.80
2023-01-05T17:02:47.807Z,17.40
2023-01-05T17:05:18.045Z,17.77
2023-01-05T17:07:48.321Z,17.17
2023-01-05T17:10:23.588Z,18.43
2023-01-05T17:13:01.184Z,13.70
2023-01-05T17:15:32.355Z,13.17
2023-01-05T17:18:02.251Z,14.43
2023-01-05T17:20:36.706Z,16.90
2023-01-05T17:23:04.824Z,15.30
2023-01-05T17:25:34.440Z,17.50
2023-01-05T17:28:02.364Z,13.10
2023-01-05T17:30:30.487Z,14.83
2023-01-05T17:32:58.425Z,11.60
2023-01-05T17:35:27.668Z,10.57
2023-01-05T17:37:55.593Z,9.93
2023-01-05T17:40:23.981Z,8.70
2023-01-05T17:42:51.902Z,11.13
2023-01-05T17:45:21.913Z,8.70
2023-01-05T17:47:50.846Z,10.70
2023-01-05T17:50:20.705Z,8.37
2023-01-05T17:52:50.311Z,7.77
2023-01-05T17:55:18.439Z,9.20
2023-01-05T17:57:46.689Z,10.13
2023-01-05T18:00:18.175Z,11.47
2023-01-05T18:02:49.589Z,11.43
2023-01-05T18:05:18.065Z,9.23
2023-01-05T18:07:46.541Z,5.60
2023-01-05T18:10:18.005Z,5.10
2023-01-05T18:12:46.195Z,5.20
2023-01-05T18:15:14.808Z,7.60
2023-01-05T18:17:43.288Z,5.50
2023-01-05T18:20:14.214Z,7.10
2023-01-05T18:22:42.783Z,6.50
2023-01-05T18:25:12.332Z,9.80
2023-01-05T18:27:41.967Z,7.20
2023-01-05T18:30:11.645Z,6.80
2023-01-05T18:32:40.147Z,9.67
2023-01-05T18:35:10.320Z,8.37
2023-01-05T18:37:38.737Z,7.33
2023-01-05T18:40:08.911Z,7.37
2023-01-05T18:42:37.216Z,8.67
2023-01-05T18:45:19.649Z,7.37
2023-01-05T18:47:57.685Z,7.57
2023-01-05T18:50:26.282Z,8.97
2023-01-05T18:52:54.125Z,8.90
2023-01-05T18:55:22.073Z,7.70
2023-01-05T18:57:50.231Z,11.60
2023-01-05T19:00:19.809Z,9.40
2023-01-05T19:02:47.744Z,8.33
2023-01-05T19:05:15.748Z,8.97
2023-01-05T19:07:43.644Z,10.70
2023-01-05T19:10:11.709Z,10.43
2023-01-05T19:12:39.622Z,11.10
2023-01-05T19:15:08.429Z,10.20
2023-01-05T19:17:37.767Z,9.60
2023-01-05T19:20:06.754Z,9.47
2023-01-05T19:22:35.141Z,12.83
2023-01-05T19:25:05.423Z,11.47
2023-01-05T19:27:33.327Z,13.33
2023-01-05T19:30:01.234Z,12.00
2023-01-05T19:32:29.170Z,10.70
2023-01-05T19:34:58.391Z,10.50
2023-01-05T19:37:26.286Z,10.57
2023-01-05T19:39:54.314Z,13.00
2023-01-05T19:42:22.221Z,16.23
2023-01-05T19:44:50.330Z,12.37
2023-01-05T19:47:18.276Z,11.40
2023-01-05T19:49:46.180Z,10.57
2023-01-05T19:52:15.549Z,14.53
2023-01-05T19:54:43.388Z,13.53
2023-01-05T19:57:11.465Z,13.63
2023-01-05T19:59:39.314Z,12.77
2023-01-05T20:02:07.787Z,13.13
2023-01-05T20:04:35.768Z,11.30
2023-01-05T20:07:04.491Z,9.47
2023-01-05T20:09:33.958Z,10.23
2023-01-05T20:12:13.886Z,9.53
2023-01-05T20:14:42.774Z,11.57
2023-01-05T20:17:11.975Z,9.17
2023-01-05T20:19:40.248Z,7.37
2023-01-05T20:22:11.823Z,9.47
2023-01-05T20:24:41.229Z,9.00
2023-01-05T20:27:13.168Z,9.43
2023-01-05T20:29:41.438Z,8.97
2023-01-05T20:32:18.611Z,7.50
2023-01-05T20:34:51.910Z,7.40
2023-01-05T20:37:20.475Z,8.23
2023-01-05T20:39:49.927Z,6.60
2023-01-05T20:42:17.871Z,7.17
2023-01-05T20:44:47.631Z,8.17
2023-01-05T20:47:16.384Z,8.90
2023-01-05T20:49:46.254Z,7.73
2023-01-05T20:52:16.012Z,5.67
2023-01-05T20:54:44.204Z,6.13
2023-01-05T20:57:13.693Z,6.23
2023-01-05T20:59:41.584Z,12.37
2023-01-05T21:02:23.109Z,9.33
2023-01-05T21:04:52.574Z,12.00
2023-01-05T21:07:21.251Z,13.43
2023-01-05T21:09:50.340Z,12.93
2023-01-05T21:12:20.156Z,11.93
2023-01-05T21:14:48.020Z,13.33
2023-01-05T21:17:16.575Z,12.30
2023-01-05T21:19:44.738Z,13.77
2023-01-05T21:22:12.622Z,12.83
2023-01-05T21:24:40.961Z,15.23
2023-01-05T21:27:08.889Z,12.97
2023-01-05T21:29:38.159Z,12.17
2023-01-05T21:32:06.385Z,16.07
2023-01-05T21:34:34.788Z,13.07
2023-01-05T21:37:02.966Z,13.30
2023-01-05T21:39:31.011Z,14.27
2023-01-05T21:42:16.372Z,14.17
2023-01-05T21:44:45.660Z,14.73
2023-01-05T21:47:13.909Z,12.53
2023-01-05T21:49:41.845Z,12.53
2023-01-05T21:52:29.108Z,14.93
2023-01-05T21:55:14.741Z,12.63
2023-01-05T21:57:42.714Z,11.83
2023-01-05T22:00:13.418Z,10.90
2023-01-05T22:02:41.231Z,9.57
2023-01-05T22:05:09.810Z,16.97
2023-01-05T22:07:37.721Z,11.33
2023-01-05T22:10:06.484Z,9.90
2023-01-05T22:12:34.514Z,15.50
2023-01-05T22:15:02.452Z,11.57
2023-01-05T22:17:33.240Z,11.40
2023-01-05T22:20:01.283Z,11.57
2023-01-05T22:22:29.159Z,10.73
2023-01-05T22:24:57.044Z,12.07
2023-01-05T22:27:24.982Z,10.93
2023-01-05T22:29:52.962Z,10.77
2023-01-05T22:32:20.789Z,10.20
2023-01-05T22:34:50.006Z,12.70
2023-01-05T22:37:17.936Z,15.13
2023-01-05T22:39:45.815Z,11.03
2023-01-05T22:42:13.653Z,9.23
2023-01-05T22:44:41.592Z,11.27
2023-01-05T22:47:09.437Z,9.17
2023-01-05T22:49:37.270Z,6.33
2023-01-05T22:52:06.648Z,7.73
2023-01-05T22:54:34.501Z,9.37
2023-01-05T22:57:02.462Z,11.40
2023-01-05T22:59:30.363Z,6.33
2023-01-05T23:01:58.342Z,6.27
2023-01-05T23:04:26.207Z,7.37
2023-01-05T23:06:54.107Z,6.40
2023-01-05T23:09:23.654Z,8.63
2023-01-05T23:11:51.530Z,7.00
2023-01-05T23:14:19.409Z,5.57
2023-01-05T23:16:48.003Z,7.77
2023-01-05T23:19:16.896Z,7.73
2023-01-05T23:21:45.061Z,7.67
2023-01-05T23:24:13.208Z,6.77
2023-01-05T23:26:42.646Z,7.30
2023-01-05T23:29:10.543Z,5.97
2023-01-05T23:31:38.397Z,5.13
2023-01-05T23:34:06.306Z,4.40
2023-01-05T23:36:34.213Z,4.27
2023-01-05T23:39:02.123Z,5.77
2023-01-05T23:41:30.023Z,5.83
2023-01-05T23:43:59.238Z,6.93
2023-01-05T23:46:27.184Z,4.37
2023-01-05T23:48:55.275Z,5.03
2023-01-05T23:51:24.475Z,6.50
2023-01-05T23:53:53.869Z,6.53
2023-01-05T23:56:23.627Z,5.80
2023-01-05T23:58:57.258Z,5.57
